Time;durP1;ratioP1;P1;durP2;ratioP2;P2;SDS_P1;SDS_P2;PMS_P1;PMS_P2;Temp;Humidity;BMP_temperature;BMP_pressure;BME280_temperature;BME280_humidity;BME280_pressure;Samples;Min_cycle;Max_cycle;Signal;HPM_P1;HPM_P2
2022/04/04 00:01:52;;;;;;;17.38;11.57;;;;;;;;;;5035757;28;20474;-72
2022/04/04 00:04:18;;;;;;;15.85;12.55;;;;;;;;;;5040230;28;20025;-71
2022/04/04 00:06:44;;;;;;;16.40;13.10;;;;;;;;;;5038363;28;20415;-72
2022/04/04 00:09:10;;;;;;;14.60;11.55;;;;;;;;;;5034344;28;20208;-72
2022/04/04 00:11:36;;;;;;;15.48;11.35;;;;;;;;;;5040685;28;20120;-71
2022/04/04 00:14:03;;;;;;;17.20;12.57;;;;;;;;;;5034212;28;20876;-72
2022/04/04 00:16:29;;;;;;;17.08;13.18;;;;;;;;;;5035867;28;20148;-71
2022/04/04 00:18:55;;;;;;;18.90;12.82;;;;;;;;;;5039117;28;20800;-72
2022/04/04 00:21:22;;;;;;;17.10;13.23;;;;;;;;;;5037105;28;20033;-71
2022/04/04 00:23:48;;;;;;;15.38;11.88;;;;;;;;;;5040043;28;20025;-72
2022/04/04 00:26:14;;;;;;;15.32;11.68;;;;;;;;;;5041311;28;20030;-71
2022/04/04 00:28:40;;;;;;;16.13;12.35;;;;;;;;;;5035912;28;20043;-72
2022/04/04 00:31:06;;;;;;;17.77;12.35;;;;;;;;;;5028472;28;20037;-71
2022/04/04 00:33:32;;;;;;;16.65;11.73;;;;;;;;;;5036413;28;20099;-72
2022/04/04 00:35:58;;;;;;;16.75;11.13;;;;;;;;;;5032311;28;20041;-72
2022/04/04 00:38:24;;;;;;;16.40;12.60;;;;;;;;;;5038281;28;20037;-71
2022/04/04 00:40:50;;;;;;;15.50;11.93;;;;;;;;;;5033189;28;20042;-72
2022/04/04 00:43:16;;;;;;;16.77;13.20;;;;;;;;;;5034589;28;20057;-72
2022/04/04 00:45:46;;;;;;;16.35;11.57;;;;;;;;;;5032565;28;20041;-72
2022/04/04 00:48:12;;;;;;;16.98;12.48;;;;;;;;;;5037189;28;20040;-71
2022/04/04 00:50:38;;;;;;;13.95;10.63;;;;;;;;;;5036659;28;20057;-72
2022/04/04 00:53:04;;;;;;;16.73;11.82;;;;;;;;;;5030670;28;20034;-72
2022/04/04 00:55:30;;;;;;;16.25;11.18;;;;;;;;;;5044254;28;20471;-72
2022/04/04 00:57:56;;;;;;;16.85;12.27;;;;;;;;;;5034943;28;20036;-72
2022/04/04 01:00:24;;;;;;;17.70;13.63;;;;;;;;;;5032831;28;20033;-72
2022/04/04 01:02:50;;;;;;;16.50;12.45;;;;;;;;;;5036281;28;20099;-71
2022/04/04 01:05:16;;;;;;;15.80;12.05;;;;;;;;;;5034262;28;20650;-72
2022/04/04 01:07:42;;;;;;;16.67;12.13;;;;;;;;;;5032098;28;20075;-72
2022/04/04 01:10:09;;;;;;;14.85;11.15;;;;;;;;;;5035558;28;20032;-72
2022/04/04 01:12:35;;;;;;;16.45;12.45;;;;;;;;;;5039698;28;20065;-72
2022/04/04 01:15:01;;;;;;;19.17;13.43;;;;;;;;;;5032547;28;20040;-72
2022/04/04 01:17:28;;;;;;;15.65;12.30;;;;;;;;;;5032113;28;20544;-71
2022/04/04 01:19:56;;;;;;;17.60;11.63;;;;;;;;;;5038048;28;20038;-72
2022/04/04 01:22:22;;;;;;;14.98;11.07;;;;;;;;;;5039881;28;20034;-72
2022/04/04 01:24:48;;;;;;;18.67;12.35;;;;;;;;;;5040869;28;20040;-72
2022/04/04 01:27:14;;;;;;;16.23;11.50;;;;;;;;;;5037562;28;20095;-72
2022/04/04 01:29:40;;;;;;;19.77;13.85;;;;;;;;;;5041012;28;20033;-72
2022/04/04 01:32:07;;;;;;;17.95;13.18;;;;;;;;;;5043102;28;20040;-72
2022/04/04 01:34:33;;;;;;;17.45;13.05;;;;;;;;;;5040057;28;20029;-72
2022/04/04 01:36:59;;;;;;;17.85;12.52;;;;;;;;;;5034084;28;20100;-72
2022/04/04 01:39:25;;;;;;;16.80;11.88;;;;;;;;;;5038511;28;20121;-72
2022/04/04 01:41:51;;;;;;;18.58;12.48;;;;;;;;;;5033914;28;20071;-72
2022/04/04 01:44:18;;;;;;;16.70;12.07;;;;;;;;;;5036253;28;20060;-72
2022/04/04 01:46:44;;;;;;;16.60;12.48;;;;;;;;;;5043219;28;20803;-72
2022/04/04 01:49:10;;;;;;;15.35;11.10;;;;;;;;;;5037178;28;20038;-72
2022/04/04 01:51:37;;;;;;;17.00;12.68;;;;;;;;;;5044014;28;20365;-72
2022/04/04 01:54:04;;;;;;;15.52;12.25;;;;;;;;;;5040741;28;20536;-72
2022/04/04 01:56:30;;;;;;;16.27;12.32;;;;;;;;;;5041193;28;20076;-72
2022/04/04 01:58:56;;;;;;;17.25;12.57;;;;;;;;;;5046941;28;20037;-72
2022/04/04 02:01:23;;;;;;;17.92;13.07;;;;;;;;;;5048650;28;20070;-72
2022/04/04 02:03:54;;;;;;;15.68;12.50;;;;;;;;;;5046615;28;20083;-72
2022/04/04 02:06:20;;;;;;;15.55;12.38;;;;;;;;;;5046764;28;20079;-72
2022/04/04 02:08:47;;;;;;;19.63;12.30;;;;;;;;;;5040482;28;20037;-72
2022/04/04 02:11:13;;;;;;;17.10;11.75;;;;;;;;;;5041726;28;20770;-71
2022/04/04 02:13:40;;;;;;;17.95;13.15;;;;;;;;;;5038824;28;20052;-72
2022/04/04 02:16:06;;;;;;;15.60;12.48;;;;;;;;;;5041841;28;20037;-72
2022/04/04 02:18:33;;;;;;;17.50;13.13;;;;;;;;;;5038928;28;20033;-72
2022/04/04 02:20:59;;;;;;;16.63;12.13;;;;;;;;;;5033128;28;20037;-72
2022/04/04 02:23:26;;;;;;;17.17;12.70;;;;;;;;;;5038188;28;20033;-72
2022/04/04 02:25:55;;;;;;;16.60;12.95;;;;;;;;;;5041485;28;20169;-72
2022/04/04 02:28:21;;;;;;;18.10;12.50;;;;;;;;;;5039030;28;20526;-72
2022/04/04 02:30:49;;;;;;;18.08;13.07;;;;;;;;;;5035736;28;20029;-72
2022/04/04 02:33:16;;;;;;;19.85;13.20;;;;;;;;;;5041188;28;20029;-71
2022/04/04 02:35:42;;;;;;;20.35;14.70;;;;;;;;;;5037829;28;20057;-72
2022/04/04 02:38:08;;;;;;;18.13;12.98;;;;;;;;;;5036503;28;20163;-72
2022/04/04 02:40:34;;;;;;;18.80;13.43;;;;;;;;;;5035825;28;20045;-72
2022/04/04 02:43:02;;;;;;;17.55;13.05;;;;;;;;;;5034022;28;20078;-71
2022/04/04 02:45:29;;;;;;;15.35;11.45;;;;;;;;;;5039768;28;20044;-72
2022/04/04 02:47:55;;;;;;;20.30;14.10;;;;;;;;;;5041641;28;20121;-72
2022/04/04 02:50:22;;;;;;;18.15;13.32;;;;;;;;;;5039448;28;20033;-72
2022/04/04 02:52:48;;;;;;;17.52;12.80;;;;;;;;;;5045692;28;20728;-72
2022/04/04 02:57:58;;;;;;;18.48;13.65;;;;;;;;;;5037399;28;20036;-72
2022/04/04 03:00:24;;;;;;;18.77;13.05;;;;;;;;;;5040010;28;20136;-72
2022/04/04 03:02:51;;;;;;;17.85;12.65;;;;;;;;;;5037240;28;20059;-71
2022/04/04 03:05:17;;;;;;;21.40;12.68;;;;;;;;;;5034405;28;20065;-72
2022/04/04 03:07:43;;;;;;;19.05;13.00;;;;;;;;;;5045092;28;20095;-72
2022/04/04 03:10:10;;;;;;;19.45;12.45;;;;;;;;;;5034823;28;20546;-72
2022/04/04 03:12:46;;;;;;;16.80;13.43;;;;;;;;;;5035403;28;20029;-71
2022/04/04 03:15:14;;;;;;;18.33;12.80;;;;;;;;;;5039680;28;20087;-72
2022/04/04 03:17:40;;;;;;;21.55;13.88;;;;;;;;;;5045581;28;20033;-71
2022/04/04 03:20:09;;;;;;;23.08;13.18;;;;;;;;;;5041373;28;20044;-72
2022/04/04 03:22:36;;;;;;;18.65;13.45;;;;;;;;;;5040514;28;20036;-71
2022/04/04 03:25:02;;;;;;;17.70;12.80;;;;;;;;;;5037020;28;20069;-72
2022/04/04 03:27:28;;;;;;;18.98;13.50;;;;;;;;;;5038536;28;20173;-72
2022/04/04 03:29:54;;;;;;;15.95;11.65;;;;;;;;;;5040992;28;20504;-71
2022/04/04 03:32:20;;;;;;;17.35;13.05;;;;;;;;;;5040031;28;20112;-72
2022/04/04 03:34:46;;;;;;;16.45;12.68;;;;;;;;;;5035190;28;20579;-72
2022/04/04 03:37:12;;;;;;;16.85;11.85;;;;;;;;;;5039285;28;20040;-72
2022/04/04 03:39:38;;;;;;;18.85;14.07;;;;;;;;;;5038279;28;20040;-72
2022/04/04 03:42:05;;;;;;;18.65;13.18;;;;;;;;;;5041357;28;20172;-72
2022/04/04 03:44:31;;;;;;;17.35;11.77;;;;;;;;;;5040615;28;20164;-72
2022/04/04 03:46:57;;;;;;;23.27;13.73;;;;;;;;;;5040132;28;20037;-72
2022/04/04 03:49:23;;;;;;;21.13;13.80;;;;;;;;;;5036571;28;20067;-71
2022/04/04 03:51:49;;;;;;;20.83;13.05;;;;;;;;;;5041487;28;20125;-72
2022/04/04 03:54:15;;;;;;;17.15;13.93;;;;;;;;;;5038947;28;20074;-71
2022/04/04 03:56:41;;;;;;;19.67;14.70;;;;;;;;;;5037863;28;20032;-72
2022/04/04 03:59:07;;;;;;;22.42;15.23;;;;;;;;;;5033880;28;20663;-72
2022/04/04 04:01:34;;;;;;;16.85;12.88;;;;;;;;;;5032944;28;20072;-72
2022/04/04 04:04:00;;;;;;;21.95;14.77;;;;;;;;;;5034747;28;20029;-72
2022/04/04 04:06:26;;;;;;;20.33;14.77;;;;;;;;;;5039038;28;20033;-71
2022/04/04 04:08:53;;;;;;;19.40;14.70;;;;;;;;;;5040848;28;20036;-72
2022/04/04 04:11:20;;;;;;;20.90;14.38;;;;;;;;;;5041416;28;20048;-71
2022/04/04 04:13:47;;;;;;;19.70;13.82;;;;;;;;;;5039898;28;20033;-72
2022/04/04 04:16:13;;;;;;;19.45;14.82;;;;;;;;;;5038151;28;20053;-72
2022/04/04 04:18:40;;;;;;;19.80;15.20;;;;;;;;;;5038156;28;20037;-71
2022/04/04 04:21:07;;;;;;;19.42;13.82;;;;;;;;;;5035872;28;20044;-72
2022/04/04 04:23:34;;;;;;;19.50;12.77;;;;;;;;;;5042243;28;20061;-71
2022/04/04 04:26:00;;;;;;;49.88;26.90;;;;;;;;;;5045046;28;20037;-72
2022/04/04 04:28:26;;;;;;;30.13;19.13;;;;;;;;;;5034969;28;20040;-72
2022/04/04 04:30:52;;;;;;;18.20;13.30;;;;;;;;;;5031631;28;20033;-72
2022/04/04 04:33:18;;;;;;;18.80;13.05;;;;;;;;;;5041732;28;20041;-72
2022/04/04 04:35:45;;;;;;;17.33;12.55;;;;;;;;;;5033415;28;20040;-72
2022/04/04 04:38:11;;;;;;;18.98;14.05;;;;;;;;;;5037993;28;20028;-72
2022/04/04 04:40:37;;;;;;;19.38;12.88;;;;;;;;;;5044094;28;20361;-72
2022/04/04 04:43:04;;;;;;;23.13;15.57;;;;;;;;;;5038154;28;20056;-72
2022/04/04 04:45:30;;;;;;;30.15;18.40;;;;;;;;;;5036958;28;20116;-72
2022/04/04 04:47:56;;;;;;;22.10;15.98;;;;;;;;;;5038887;28;20045;-71
2022/04/04 04:50:22;;;;;;;18.95;14.50;;;;;;;;;;5033075;28;20502;-71
2022/04/04 04:52:49;;;;;;;20.25;15.27;;;;;;;;;;5041893;28;20123;-72
2022/04/04 04:55:16;;;;;;;27.40;17.90;;;;;;;;;;5031738;28;20499;-71
2022/04/04 04:57:42;;;;;;;26.02;17.35;;;;;;;;;;5040159;28;20065;-72
2022/04/04 05:00:10;;;;;;;23.98;17.48;;;;;;;;;;5041634;28;20060;-72
2022/04/04 05:02:36;;;;;;;39.00;25.92;;;;;;;;;;5043243;28;20399;-72
2022/04/04 05:05:04;;;;;;;28.23;16.88;;;;;;;;;;5041017;28;20034;-72
2022/04/04 05:07:30;;;;;;;35.47;22.63;;;;;;;;;;5039326;28;20435;-71
2022/04/04 05:09:56;;;;;;;34.92;19.85;;;;;;;;;;5047528;28;20055;-72
2022/04/04 05:12:22;;;;;;;28.02;18.80;;;;;;;;;;5037106;28;20033;-72
2022/04/04 05:14:49;;;;;;;25.33;18.08;;;;;;;;;;5038314;28;20025;-72
2022/04/04 05:17:15;;;;;;;24.92;15.82;;;;;;;;;;5046189;28;20103;-72
2022/04/04 05:19:41;;;;;;;24.83;17.63;;;;;;;;;;5040161;28;20033;-72
2022/04/04 05:22:08;;;;;;;24.25;16.92;;;;;;;;;;5043117;28;20591;-72
2022/04/04 05:24:34;;;;;;;30.85;20.95;;;;;;;;;;5048221;28;20032;-72
2022/04/04 05:27:00;;;;;;;27.73;20.10;;;;;;;;;;5042602;28;20080;-72
2022/04/04 05:29:26;;;;;;;25.90;19.35;;;;;;;;;;5045291;28;20040;-72
2022/04/04 05:31:54;;;;;;;24.38;17.42;;;;;;;;;;5049681;28;21690;-72
2022/04/04 05:34:20;;;;;;;25.35;16.55;;;;;;;;;;5045510;28;20017;-72
2022/04/04 05:36:47;;;;;;;26.65;16.30;;;;;;;;;;5044018;28;20040;-72
2022/04/04 05:39:13;;;;;;;25.90;17.88;;;;;;;;;;5045141;28;20031;-72
2022/04/04 05:41:39;;;;;;;23.92;15.30;;;;;;;;;;5043374;28;20037;-72
2022/04/04 05:44:06;;;;;;;22.38;14.70;;;;;;;;;;5043883;28;20052;-71
2022/04/04 05:46:32;;;;;;;21.63;15.63;;;;;;;;;;5047413;28;20033;-72
2022/04/04 05:49:00;;;;;;;21.27;15.70;;;;;;;;;;5047753;28;20033;-72
2022/04/04 05:51:27;;;;;;;22.58;16.98;;;;;;;;;;5044648;28;20032;-72
2022/04/04 05:53:53;;;;;;;21.42;15.30;;;;;;;;;;5040369;28;20025;-71
2022/04/04 05:56:21;;;;;;;25.88;16.45;;;;;;;;;;5043960;28;20457;-72
2022/04/04 05:58:47;;;;;;;22.85;16.70;;;;;;;;;;5042633;28;20021;-72
2022/04/04 06:01:13;;;;;;;22.08;15.80;;;;;;;;;;5043522;28;20059;-72
2022/04/04 06:03:40;;;;;;;24.58;16.77;;;;;;;;;;5078754;22;20040;-72
2022/04/04 06:06:06;;;;;;;20.08;15.00;;;;;;;;;;5087916;28;20246;-71
2022/04/04 06:08:32;;;;;;;24.13;15.98;;;;;;;;;;5088906;28;20115;-71
2022/04/04 06:10:58;;;;;;;21.85;15.52;;;;;;;;;;5083666;28;20040;-71
2022/04/04 06:13:24;;;;;;;20.77;15.45;;;;;;;;;;5086206;28;20604;-72
2022/04/04 06:15:50;;;;;;;22.25;15.95;;;;;;;;;;5080826;28;20902;-71
2022/04/04 06:18:16;;;;;;;21.70;15.55;;;;;;;;;;5085008;28;20115;-71
2022/04/04 06:20:42;;;;;;;23.95;17.52;;;;;;;;;;5086841;28;20494;-72
2022/04/04 06:23:09;;;;;;;23.42;17.02;;;;;;;;;;5084013;28;20664;-71
2022/04/04 06:25:35;;;;;;;22.15;15.48;;;;;;;;;;5086390;28;20036;-72
2022/04/04 06:28:01;;;;;;;20.85;16.10;;;;;;;;;;5086944;28;20040;-72
2022/04/04 06:30:28;;;;;;;23.55;16.15;;;;;;;;;;5084258;28;20032;-71
2022/04/04 06:32:54;;;;;;;22.27;15.82;;;;;;;;;;5088122;28;20562;-71
2022/04/04 06:35:20;;;;;;;22.80;16.00;;;;;;;;;;5086526;28;20028;-71
2022/04/04 06:37:46;;;;;;;24.77;16.17;;;;;;;;;;5085166;28;20034;-72
2022/04/04 06:40:14;;;;;;;26.00;17.08;;;;;;;;;;5084606;28;20047;-72
2022/04/04 06:42:41;;;;;;;24.35;17.40;;;;;;;;;;5088318;28;20042;-71
2022/04/04 06:45:07;;;;;;;21.83;16.05;;;;;;;;;;5086570;28;20826;-71
2022/04/04 06:47:34;;;;;;;26.10;15.88;;;;;;;;;;5088150;28;20090;-72
2022/04/04 06:50:00;;;;;;;22.73;15.02;;;;;;;;;;5084975;28;20691;-72
2022/04/04 06:52:27;;;;;;;26.05;16.17;;;;;;;;;;5080662;28;20493;-72
2022/04/04 06:54:57;;;;;;;25.70;17.20;;;;;;;;;;5086963;28;20035;-71
2022/04/04 06:57:23;;;;;;;24.65;17.67;;;;;;;;;;5085263;28;20020;-72
2022/04/04 06:59:49;;;;;;;26.30;16.17;;;;;;;;;;5086790;28;20402;-72
2022/04/04 07:02:15;;;;;;;23.50;15.98;;;;;;;;;;5086576;28;20079;-71
2022/04/04 07:04:42;;;;;;;25.85;17.17;;;;;;;;;;5083609;28;20142;-71
2022/04/04 07:07:08;;;;;;;21.75;16.27;;;;;;;;;;5087329;28;20028;-72
2022/04/04 07:09:34;;;;;;;23.85;16.65;;;;;;;;;;5087221;28;20073;-72
2022/04/04 07:12:02;;;;;;;25.77;15.75;;;;;;;;;;5086608;28;20085;-72
2022/04/04 07:14:28;;;;;;;27.95;18.02;;;;;;;;;;5087609;28;20058;-72
2022/04/04 07:16:55;;;;;;;25.40;18.50;;;;;;;;;;5084842;28;20144;-71
2022/04/04 07:19:22;;;;;;;25.33;16.67;;;;;;;;;;5086512;28;20433;-71
2022/04/04 07:21:51;;;;;;;23.95;17.42;;;;;;;;;;5087079;28;20051;-72
2022/04/04 07:24:17;;;;;;;25.15;17.58;;;;;;;;;;5087226;28;20044;-72
2022/04/04 07:26:43;;;;;;;24.50;16.95;;;;;;;;;;5086350;28;20032;-72
2022/04/04 07:29:09;;;;;;;23.25;16.55;;;;;;;;;;5087022;28;20486;-72
2022/04/04 07:31:36;;;;;;;22.73;17.13;;;;;;;;;;5086157;28;20020;-71
2022/04/04 07:34:02;;;;;;;22.65;17.02;;;;;;;;;;5085090;28;20072;-72
2022/04/04 07:36:28;;;;;;;24.15;15.82;;;;;;;;;;5085160;28;20077;-72
2022/04/04 07:38:54;;;;;;;24.80;16.63;;;;;;;;;;5084416;28;20115;-72
2022/04/04 07:41:21;;;;;;;21.60;15.45;;;;;;;;;;5082066;28;20241;-72
2022/04/04 07:43:47;;;;;;;23.80;15.73;;;;;;;;;;5082062;28;20114;-71
2022/04/04 07:46:13;;;;;;;22.67;15.95;;;;;;;;;;5080941;28;20029;-71
2022/04/04 07:48:42;;;;;;;25.38;17.02;;;;;;;;;;5082556;28;20114;-71
2022/04/04 07:51:08;;;;;;;21.15;15.18;;;;;;;;;;5081788;28;20028;-72
2022/04/04 07:53:34;;;;;;;27.45;15.98;;;;;;;;;;5083820;28;20039;-72
2022/04/04 07:56:00;;;;;;;22.75;16.80;;;;;;;;;;5084828;28;21096;-72
2022/04/04 07:58:26;;;;;;;23.05;16.13;;;;;;;;;;5083804;28;20586;-72
2022/04/04 08:00:54;;;;;;;22.98;16.73;;;;;;;;;;5081634;28;20127;-71
2022/04/04 08:03:21;;;;;;;24.42;17.23;;;;;;;;;;5082320;28;20088;-71
2022/04/04 08:05:47;;;;;;;22.13;16.17;;;;;;;;;;5085969;28;20481;-71
2022/04/04 08:08:13;;;;;;;22.20;17.77;;;;;;;;;;5080429;28;20043;-72
2022/04/04 08:10:39;;;;;;;26.75;17.88;;;;;;;;;;5082660;28;20029;-71
2022/04/04 08:13:05;;;;;;;27.00;18.15;;;;;;;;;;5085280;28;20040;-72
2022/04/04 08:15:31;;;;;;;24.40;16.42;;;;;;;;;;5085719;28;20641;-71
2022/04/04 08:17:57;;;;;;;22.08;17.83;;;;;;;;;;5082436;28;20122;-72
2022/04/04 08:20:24;;;;;;;23.10;16.00;;;;;;;;;;5085235;28;20064;-72
2022/04/04 08:22:50;;;;;;;20.50;16.10;;;;;;;;;;5084610;28;20040;-71
2022/04/04 08:25:16;;;;;;;22.60;16.13;;;;;;;;;;5084439;28;20043;-71
2022/04/04 08:27:43;;;;;;;21.35;15.77;;;;;;;;;;5084956;28;20078;-72
2022/04/04 08:30:11;;;;;;;22.60;16.95;;;;;;;;;;5083331;28;20032;-72
2022/04/04 08:32:37;;;;;;;23.38;16.75;;;;;;;;;;5082249;28;20047;-71
2022/04/04 08:35:07;;;;;;;24.17;16.10;;;;;;;;;;5078161;28;20024;-72
2022/04/04 08:37:34;;;;;;;25.15;17.98;;;;;;;;;;5085585;28;20036;-72
2022/04/04 08:40:01;;;;;;;22.77;17.25;;;;;;;;;;5087411;28;20026;-72
2022/04/04 08:42:27;;;;;;;28.73;18.30;;;;;;;;;;5084258;28;20063;-72
2022/04/04 08:44:57;;;;;;;24.92;16.48;;;;;;;;;;5085165;28;20127;-71
2022/04/04 08:47:24;;;;;;;23.38;16.65;;;;;;;;;;5088157;28;20097;-71
2022/04/04 08:49:52;;;;;;;27.25;17.60;;;;;;;;;;5086354;28;20028;-71
2022/04/04 08:52:18;;;;;;;22.58;16.10;;;;;;;;;;5089669;28;20016;-71
2022/04/04 08:54:44;;;;;;;23.05;17.83;;;;;;;;;;5086442;28;20020;-72
2022/04/04 08:57:10;;;;;;;24.05;17.90;;;;;;;;;;5087830;28;20102;-71
2022/04/04 08:59:36;;;;;;;27.73;16.98;;;;;;;;;;5084798;28;20170;-71
2022/04/04 09:02:03;;;;;;;23.40;16.05;;;;;;;;;;5085986;28;20032;-72
2022/04/04 09:04:32;;;;;;;23.63;16.67;;;;;;;;;;5087488;28;20085;-72
2022/04/04 09:07:00;;;;;;;22.00;15.48;;;;;;;;;;5084609;28;20039;-71
2022/04/04 09:09:37;;;;;;;18.88;14.30;;;;;;;;;;5080767;28;20075;-72
2022/04/04 09:12:10;;;;;;;23.77;16.30;;;;;;;;;;5079746;28;20031;-72
2022/04/04 09:14:37;;;;;;;24.88;17.77;;;;;;;;;;5083792;28;20486;-72
2022/04/04 09:17:06;;;;;;;24.88;17.50;;;;;;;;;;5088811;28;20035;-71
2022/04/04 09:19:32;;;;;;;23.58;16.80;;;;;;;;;;5085039;28;20040;-72
2022/04/04 09:22:04;;;;;;;22.80;17.48;;;;;;;;;;5083651;28;20035;-71
2022/04/04 09:24:50;;;;;;;23.30;15.90;;;;;;;;;;5080273;28;20118;-71
2022/04/04 09:27:18;;;;;;;23.58;17.63;;;;;;;;;;5097374;28;20752;-72
2022/04/04 09:29:46;;;;;;;23.58;15.70;;;;;;;;;;5078872;28;20033;-72
2022/04/04 09:32:14;;;;;;;19.70;15.73;;;;;;;;;;5079523;28;20189;-71
2022/04/04 09:35:08;;;;;;;20.75;15.85;;;;;;;;;;5082209;28;20094;-72
2022/04/04 09:37:35;;;;;;;21.90;15.63;;;;;;;;;;5086837;28;20063;-72
2022/04/04 09:40:04;;;;;;;20.58;13.68;;;;;;;;;;5086963;28;20036;-72
2022/04/04 09:42:32;;;;;;;20.92;15.50;;;;;;;;;;5083019;28;20028;-72
2022/04/04 09:44:58;;;;;;;21.88;14.77;;;;;;;;;;5078574;28;20050;-72
2022/04/04 09:47:24;;;;;;;19.70;15.00;;;;;;;;;;5082563;28;20032;-72
2022/04/04 09:49:50;;;;;;;19.52;14.20;;;;;;;;;;5081992;28;20039;-72
2022/04/04 09:52:17;;;;;;;19.30;13.32;;;;;;;;;;5080916;28;20034;-72
2022/04/04 09:54:43;;;;;;;21.67;15.68;;;;;;;;;;5079491;28;20027;-72
2022/04/04 09:57:16;;;;;;;19.45;15.38;;;;;;;;;;5084865;28;20043;-72
2022/04/04 09:59:43;;;;;;;22.95;15.38;;;;;;;;;;5083086;28;20044;-71
2022/04/04 10:02:09;;;;;;;19.90;14.75;;;;;;;;;;5082748;28;20157;-71
2022/04/04 10:04:36;;;;;;;17.60;13.27;;;;;;;;;;5082362;28;20419;-71
2022/04/04 10:07:07;;;;;;;18.73;14.13;;;;;;;;;;5083521;28;20074;-72
2022/04/04 10:09:33;;;;;;;20.88;14.05;;;;;;;;;;5079842;28;20036;-72
2022/04/04 10:11:59;;;;;;;19.08;14.18;;;;;;;;;;5081291;28;20028;-72
2022/04/04 10:14:26;;;;;;;21.98;13.52;;;;;;;;;;5083009;28;20038;-72
2022/04/04 10:16:53;;;;;;;17.50;11.98;;;;;;;;;;5084674;28;20069;-72
2022/04/04 10:19:19;;;;;;;19.30;13.25;;;;;;;;;;5081712;28;20032;-71
2022/04/04 10:21:46;;;;;;;17.90;12.50;;;;;;;;;;5082645;28;20085;-72
2022/04/04 10:24:13;;;;;;;17.52;12.95;;;;;;;;;;5082838;28;20039;-72
2022/04/04 10:26:39;;;;;;;17.10;12.38;;;;;;;;;;5080483;28;20090;-72
2022/04/04 10:29:12;;;;;;;17.77;12.35;;;;;;;;;;5092485;28;20123;-72
2022/04/04 10:31:46;;;;;;;19.65;14.23;;;;;;;;;;5086758;28;20028;-71
2022/04/04 10:34:15;;;;;;;19.20;12.13;;;;;;;;;;5080685;28;20082;-71
2022/04/04 10:37:00;;;;;;;15.40;12.45;;;;;;;;;;5083186;28;20028;-72
2022/04/04 10:39:55;;;;;;;22.10;11.82;;;;;;;;;;5083711;28;20036;-71
2022/04/04 10:42:36;;;;;;;17.27;12.95;;;;;;;;;;5067369;28;20039;-72
2022/04/04 10:45:07;;;;;;;16.30;11.98;;;;;;;;;;5084547;28;20032;-71
2022/04/04 10:47:36;;;;;;;16.02;10.88;;;;;;;;;;5082091;28;20046;-71
2022/04/04 10:50:22;;;;;;;12.85;8.95;;;;;;;;;;5084670;28;20032;-72
2022/04/04 10:52:48;;;;;;;15.75;10.85;;;;;;;;;;5080516;28;20032;-72
2022/04/04 10:55:44;;;;;;;13.57;10.13;;;;;;;;;;5082584;28;20604;-73
2022/04/04 10:58:13;;;;;;;12.60;9.35;;;;;;;;;;5068741;28;20448;-72
2022/04/04 11:01:15;;;;;;;11.10;8.43;;;;;;;;;;5082874;28;20028;-72
2022/04/04 11:03:53;;;;;;;11.93;8.80;;;;;;;;;;5061592;28;20523;-72
2022/04/04 11:09:14;;;;;;;13.75;10.20;;;;;;;;;;5084681;28;20980;-72
2022/04/04 11:11:54;;;;;;;13.32;10.13;;;;;;;;;;5081698;28;20043;-71
2022/04/04 11:14:37;;;;;;;13.48;10.27;;;;;;;;;;5080419;28;20059;-71
2022/04/04 11:17:09;;;;;;;13.15;9.48;;;;;;;;;;5082355;28;20024;-71
2022/04/04 11:19:48;;;;;;;11.85;8.35;;;;;;;;;;5082059;28;20734;-71
2022/04/04 11:22:15;;;;;;;10.43;7.28;;;;;;;;;;5078691;28;20028;-71
2022/04/04 11:24:52;;;;;;;9.80;8.05;;;;;;;;;;5097438;27;21164;-71
2022/04/04 11:27:19;;;;;;;14.25;8.70;;;;;;;;;;5083829;28;20025;-71
2022/04/04 11:29:45;;;;;;;11.70;8.43;;;;;;;;;;5096534;28;20104;-72
2022/04/04 11:32:19;;;;;;;12.02;7.90;;;;;;;;;;5089223;28;20507;-72
2022/04/04 11:34:45;;;;;;;11.68;7.85;;;;;;;;;;5080661;28;20040;-72
2022/04/04 11:37:18;;;;;;;11.00;8.20;;;;;;;;;;5081689;28;20814;-72
2022/04/04 11:39:45;;;;;;;13.65;9.15;;;;;;;;;;5084209;28;20040;-71
2022/04/04 11:42:11;;;;;;;13.90;8.32;;;;;;;;;;5080064;28;20050;-71
2022/04/04 11:44:45;;;;;;;12.15;7.90;;;;;;;;;;5087031;28;20846;-72
2022/04/04 11:47:11;;;;;;;11.63;7.80;;;;;;;;;;5079528;28;20046;-72
2022/04/04 11:49:37;;;;;;;12.63;7.85;;;;;;;;;;5079032;28;20454;-71
2022/04/04 11:52:06;;;;;;;13.85;8.73;;;;;;;;;;5080435;28;20517;-71
2022/04/04 11:54:59;;;;;;;12.35;8.68;;;;;;;;;;5084638;28;20144;-72
2022/04/04 11:57:25;;;;;;;10.57;8.15;;;;;;;;;;5088675;28;20051;-71
2022/04/04 11:59:51;;;;;;;10.73;8.60;;;;;;;;;;5083584;28;20032;-72
2022/04/04 12:02:23;;;;;;;15.95;8.15;;;;;;;;;;5083925;28;20478;-72
2022/04/04 12:04:49;;;;;;;11.57;8.47;;;;;;;;;;5077704;28;20028;-72
2022/04/04 12:07:17;;;;;;;13.10;9.00;;;;;;;;;;5087919;28;20027;-71
2022/04/04 12:09:46;;;;;;;10.02;7.75;;;;;;;;;;5079569;28;20056;-71
2022/04/04 12:12:13;;;;;;;11.20;8.35;;;;;;;;;;5085311;28;20552;-71
2022/04/04 12:14:40;;;;;;;9.35;7.20;;;;;;;;;;5081411;28;20036;-72
2022/04/04 12:17:11;;;;;;;11.30;7.82;;;;;;;;;;5085575;28;20073;-72
2022/04/04 12:19:43;;;;;;;10.77;8.50;;;;;;;;;;5072966;28;20045;-72
2022/04/04 12:24:55;;;;;;;9.60;7.45;;;;;;;;;;5082907;28;20094;-72
2022/04/04 12:27:21;;;;;;;10.05;7.10;;;;;;;;;;5082673;28;20648;-71
2022/04/04 12:29:47;;;;;;;9.88;7.10;;;;;;;;;;5075976;28;20556;-71
2022/04/04 12:32:18;;;;;;;10.30;7.43;;;;;;;;;;5081414;28;20103;-72
2022/04/04 12:34:58;;;;;;;11.63;7.80;;;;;;;;;;5076292;28;20036;-72
2022/04/04 12:37:34;;;;;;;9.18;6.80;;;;;;;;;;5067238;28;20030;-72
2022/04/04 12:40:19;;;;;;;8.98;7.28;;;;;;;;;;5067886;28;20048;-72
2022/04/04 12:42:47;;;;;;;9.98;7.65;;;;;;;;;;5067532;28;20036;-72
2022/04/04 12:45:13;;;;;;;10.02;7.93;;;;;;;;;;5071132;28;20031;-68
2022/04/04 12:47:58;;;;;;;14.48;7.65;;;;;;;;;;5067096;28;20103;-68
2022/04/04 12:50:25;;;;;;;13.07;8.35;;;;;;;;;;5065446;28;20028;-69
2022/04/04 12:53:03;;;;;;;13.10;7.45;;;;;;;;;;5071307;28;20063;-69
2022/04/04 12:55:29;;;;;;;13.23;8.05;;;;;;;;;;5065666;28;20482;-69
2022/04/04 12:57:56;;;;;;;11.23;8.18;;;;;;;;;;5068132;28;20047;-69
2022/04/04 13:00:26;;;;;;;10.57;8.30;;;;;;;;;;5065249;28;20469;-69
2022/04/04 13:02:53;;;;;;;15.40;8.18;;;;;;;;;;5063588;28;20037;-69
2022/04/04 13:05:19;;;;;;;10.90;7.70;;;;;;;;;;5068805;28;20571;-69
2022/04/04 13:07:55;;;;;;;14.75;8.95;;;;;;;;;;5069580;28;20478;-69
2022/04/04 13:10:24;;;;;;;11.80;7.43;;;;;;;;;;5065848;28;20033;-69
2022/04/04 13:12:50;;;;;;;11.82;7.95;;;;;;;;;;5070242;28;20028;-69
2022/04/04 13:15:50;;;;;;;11.93;8.75;;;;;;;;;;5060896;28;20044;-69
2022/04/04 13:18:16;;;;;;;11.20;7.72;;;;;;;;;;5026439;28;20044;-69
2022/04/04 13:20:42;;;;;;;13.57;8.25;;;;;;;;;;5061818;28;20067;-69
2022/04/04 13:23:08;;;;;;;12.77;8.20;;;;;;;;;;5062756;28;20695;-69
2022/04/04 13:25:34;;;;;;;12.63;7.40;;;;;;;;;;5064521;28;20024;-69
2022/04/04 13:28:00;;;;;;;10.25;7.65;;;;;;;;;;5067090;28;20032;-69
2022/04/04 13:30:26;;;;;;;11.30;7.47;;;;;;;;;;5066297;28;20032;-69
2022/04/04 13:32:52;;;;;;;11.10;7.07;;;;;;;;;;5067163;28;20178;-69
2022/04/04 13:35:18;;;;;;;11.40;7.65;;;;;;;;;;5046482;28;20528;-69
2022/04/04 13:37:44;;;;;;;9.32;6.30;;;;;;;;;;5068823;28;20378;-69
2022/04/04 13:40:11;;;;;;;8.93;6.90;;;;;;;;;;5062342;28;20397;-69
2022/04/04 13:42:37;;;;;;;10.93;7.75;;;;;;;;;;5069880;28;20027;-69
2022/04/04 13:45:07;;;;;;;15.20;9.95;;;;;;;;;;5075714;28;20490;-69
2022/04/04 13:47:33;;;;;;;13.55;8.40;;;;;;;;;;5068034;28;20032;-68
2022/04/04 13:49:59;;;;;;;8.82;6.72;;;;;;;;;;5069279;28;20468;-69
2022/04/04 13:52:26;;;;;;;10.65;8.10;;;;;;;;;;5064720;28;20024;-69
2022/04/04 13:54:52;;;;;;;9.35;7.35;;;;;;;;;;5067881;28;20370;-69
2022/04/04 13:57:18;;;;;;;10.63;6.75;;;;;;;;;;5073872;28;20021;-69
2022/04/04 13:59:44;;;;;;;11.00;7.07;;;;;;;;;;5068365;28;20069;-69
2022/04/04 14:02:11;;;;;;;9.32;6.75;;;;;;;;;;5068531;28;20482;-68
2022/04/04 14:04:38;;;;;;;10.55;7.05;;;;;;;;;;5065714;28;20091;-69
2022/04/04 14:07:04;;;;;;;14.57;7.50;;;;;;;;;;5066844;28;20396;-69
2022/04/04 14:09:31;;;;;;;12.00;7.50;;;;;;;;;;5074770;28;20051;-69
2022/04/04 14:11:57;;;;;;;9.65;7.55;;;;;;;;;;5058136;28;20028;-69
2022/04/04 14:14:23;;;;;;;10.85;7.95;;;;;;;;;;5066267;28;20055;-69
2022/04/04 14:16:49;;;;;;;10.10;6.82;;;;;;;;;;5063230;28;20036;-69
2022/04/04 14:19:16;;;;;;;11.20;7.93;;;;;;;;;;5066962;28;20047;-69
2022/04/04 14:21:43;;;;;;;10.80;8.20;;;;;;;;;;5064355;28;20032;-69
2022/04/04 14:24:09;;;;;;;10.73;6.75;;;;;;;;;;5067740;28;20052;-69
2022/04/04 14:26:35;;;;;;;10.88;7.25;;;;;;;;;;5067590;28;20052;-69
2022/04/04 14:29:01;;;;;;;10.98;7.72;;;;;;;;;;5065557;28;20033;-69
2022/04/04 14:31:29;;;;;;;10.93;8.32;;;;;;;;;;5067508;28;20036;-69
2022/04/04 14:33:58;;;;;;;12.38;7.55;;;;;;;;;;5072471;28;20043;-69